createdAt,value
2023-09-08T00:01:44.031Z,69.50
2023-09-08T00:04:15.952Z,69.61
2023-09-08T00:06:48.153Z,68.72
2023-09-08T00:09:19.676Z,69.04
2023-09-08T00:11:51.241Z,69.88
2023-09-08T00:14:22.839Z,70.25
2023-09-08T00:16:57.298Z,70.28
2023-09-08T00:19:28.828Z,70.70
2023-09-08T00:22:00.525Z,70.61
2023-09-08T00:24:32.040Z,71.34
2023-09-08T00:27:03.695Z,71.32
2023-09-08T00:29:35.253Z,71.11
2023-09-08T00:32:07.052Z,71.01
2023-09-08T00:34:38.862Z,71.50
2023-09-08T00:37:10.990Z,70.93
2023-09-08T00:39:42.411Z,71.37
2023-09-08T00:42:13.979Z,71.08
2023-09-08T00:44:45.498Z,70.83
2023-09-08T00:47:17.089Z,70.50
2023-09-08T00:49:50.305Z,70.62
2023-09-08T00:52:21.899Z,70.88
2023-09-08T00:54:53.452Z,70.67
2023-09-08T00:57:25.304Z,70.76
2023-09-08T00:59:56.913Z,71.00
2023-09-08T01:02:28.954Z,70.82
2023-09-08T01:05:03.851Z,71.30
2023-09-08T01:07:36.451Z,71.56
2023-09-08T01:10:08.840Z,71.38
2023-09-08T01:12:40.946Z,71.05
2023-09-08T01:15:13.188Z,71.26
2023-09-08T01:17:44.943Z,71.35
2023-09-08T01:20:22.640Z,71.50
2023-09-08T01:23:19.945Z,71.42
2023-09-08T01:26:12.532Z,71.97
2023-09-08T01:28:45.004Z,71.93
2023-09-08T01:31:17.937Z,71.50
2023-09-08T01:33:49.941Z,71.51
2023-09-08T01:36:21.651Z,71.58
2023-09-08T01:38:53.296Z,72.10
2023-09-08T01:41:24.904Z,71.79
2023-09-08T01:43:56.450Z,71.72
2023-09-08T01:46:27.984Z,72.01
2023-09-08T01:48:59.576Z,72.29
2023-09-08T01:51:31.301Z,71.55
2023-09-08T01:54:03.003Z,72.43
2023-09-08T01:56:34.574Z,72.47
2023-09-08T01:59:06.178Z,72.54
2023-09-08T02:01:37.963Z,72.72
2023-09-08T02:04:09.750Z,72.89
2023-09-08T02:06:41.283Z,72.97
2023-09-08T02:09:15.619Z,72.97
2023-09-08T02:11:47.155Z,72.93
2023-09-08T02:14:18.687Z,73.02
2023-09-08T02:16:50.218Z,73.15
2023-09-08T02:19:21.906Z,72.30
2023-09-08T02:21:53.490Z,72.63
2023-09-08T02:24:25.090Z,72.36
2023-09-08T02:26:56.636Z,72.40
2023-09-08T02:29:28.178Z,72.30
2023-09-08T02:31:59.724Z,72.57
2023-09-08T02:34:31.328Z,72.78
2023-09-08T02:37:02.924Z,72.90
2023-09-08T02:39:34.715Z,73.26
2023-09-08T02:42:06.333Z,73.26
2023-09-08T02:44:37.908Z,73.69
2023-09-08T02:47:09.522Z,73.64
2023-09-08T02:49:41.255Z,73.33
2023-09-08T02:52:12.835Z,73.10
2023-09-08T02:54:44.394Z,73.65
2023-09-08T02:57:16.000Z,73.92
2023-09-08T02:59:52.265Z,73.89
2023-09-08T03:02:26.050Z,74.09
2023-09-08T03:04:57.858Z,74.01
2023-09-08T03:07:29.487Z,73.64
2023-09-08T03:10:01.068Z,73.09
2023-09-08T03:12:32.581Z,73.70
2023-09-08T03:15:05.198Z,74.01
2023-09-08T03:17:36.776Z,73.73
2023-09-08T03:20:12.550Z,73.90
2023-09-08T03:22:44.088Z,73.59
2023-09-08T03:25:16.203Z,73.51
2023-09-08T03:27:47.803Z,73.75
2023-09-08T03:30:19.365Z,73.47
2023-09-08T03:32:50.970Z,73.38
2023-09-08T03:35:22.580Z,73.32
2023-09-08T03:37:54.144Z,73.41
2023-09-08T03:40:25.795Z,73.87
2023-09-08T03:42:57.354Z,73.80
2023-09-08T03:45:28.938Z,74.17
2023-09-08T03:48:00.474Z,73.35
2023-09-08T03:50:32.257Z,73.01
2023-09-08T03:53:03.952Z,73.03
2023-09-08T03:55:35.525Z,73.76
2023-09-08T03:58:07.168Z,73.35
2023-09-08T04:00:38.844Z,73.92
2023-09-08T04:03:10.443Z,74.06
2023-09-08T04:05:42.134Z,74.42
2023-09-08T04:08:13.999Z,74.49
2023-09-08T04:10:45.609Z,74.75
2023-09-08T04:13:17.208Z,74.67
2023-09-08T04:15:48.915Z,74.34
2023-09-08T04:18:20.591Z,74.24
2023-09-08T04:20:52.341Z,73.89
2023-09-08T04:23:24.010Z,74.06
2023-09-08T04:25:55.627Z,74.31
2023-09-08T04:28:27.231Z,73.85
2023-09-08T04:30:58.851Z,74.33
2023-09-08T04:33:30.732Z,74.33
2023-09-08T04:36:02.436Z,74.13
2023-09-08T04:38:33.976Z,73.75
2023-09-08T04:41:08.645Z,73.76
2023-09-08T04:43:40.277Z,73.92
2023-09-08T04:46:11.896Z,73.73
2023-09-08T04:48:43.794Z,73.99
2023-09-08T04:51:15.727Z,74.09
2023-09-08T04:53:47.321Z,74.20
2023-09-08T04:56:18.928Z,74.36
2023-09-08T04:58:50.551Z,74.57
2023-09-08T05:01:22.184Z,74.41
2023-09-08T05:03:54.125Z,74.47
2023-09-08T05:06:26.257Z,74.44
2023-09-08T05:08:58.978Z,74.13
2023-09-08T05:11:30.529Z,74.01
2023-09-08T05:14:03.028Z,74.28
2023-09-08T05:16:38.889Z,74.26
2023-09-08T05:19:10.861Z,74.50
2023-09-08T05:21:44.373Z,74.50
2023-09-08T05:24:16.018Z,74.84
2023-09-08T05:26:48.275Z,74.63
2023-09-08T05:29:19.749Z,74.99
2023-09-08T05:31:51.263Z,75.04
2023-09-08T05:34:22.843Z,75.15
2023-09-08T05:36:54.398Z,75.64
2023-09-08T05:39:26.113Z,74.81
2023-09-08T05:41:57.658Z,74.73
2023-09-08T05:44:29.226Z,75.30
2023-09-08T05:47:00.773Z,75.05
2023-09-08T05:49:33.164Z,75.25
2023-09-08T05:52:06.249Z,75.63
2023-09-08T05:54:37.903Z,75.56
2023-09-08T05:57:09.401Z,75.80
2023-09-08T05:59:40.951Z,75.54
2023-09-08T06:02:12.547Z,75.36
2023-09-08T06:04:44.346Z,75.04
2023-09-08T06:07:15.875Z,75.07
2023-09-08T06:09:47.543Z,74.96
2023-09-08T06:12:19.109Z,74.68
2023-09-08T06:14:50.688Z,74.57
2023-09-08T06:17:22.249Z,75.06
2023-09-08T06:19:53.814Z,75.18
2023-09-08T06:22:25.316Z,75.24
2023-09-08T06:24:56.914Z,75.27
2023-09-08T06:27:28.529Z,74.92
2023-09-08T06:30:00.142Z,74.89
2023-09-08T06:32:31.741Z,75.00
2023-09-08T06:35:03.421Z,75.25
2023-09-08T06:37:39.351Z,75.95
2023-09-08T06:40:10.926Z,75.59
2023-09-08T06:42:42.563Z,76.11
2023-09-08T06:45:14.636Z,75.56
2023-09-08T06:47:46.373Z,76.04
2023-09-08T06:50:18.177Z,75.47
2023-09-08T06:52:53.807Z,75.11
2023-09-08T06:55:25.355Z,75.00
2023-09-08T06:57:56.965Z,74.83
2023-09-08T07:00:29.312Z,75.12
2023-09-08T07:03:01.204Z,74.94
2023-09-08T07:05:33.293Z,75.03
2023-09-08T07:08:05.066Z,75.22
2023-09-08T07:10:36.669Z,74.84
2023-09-08T07:13:08.226Z,76.29
2023-09-08T07:15:39.812Z,75.69
2023-09-08T07:18:11.543Z,76.26
2023-09-08T07:20:48.105Z,76.16
2023-09-08T07:23:19.905Z,77.11
2023-09-08T07:25:51.683Z,77.73
2023-09-08T07:28:24.077Z,77.38
2023-09-08T07:31:04.025Z,76.68
2023-09-08T07:33:35.913Z,76.29
2023-09-08T07:36:09.522Z,76.10
2023-09-08T07:38:41.222Z,75.42
2023-09-08T07:41:13.513Z,74.92
2023-09-08T07:43:46.793Z,76.39
2023-09-08T07:46:18.557Z,75.40
2023-09-08T07:48:50.960Z,74.70
2023-09-08T07:51:22.651Z,75.86
2023-09-08T07:53:54.797Z,75.06
2023-09-08T07:56:26.409Z,74.96
2023-09-08T07:58:57.926Z,74.95
2023-09-08T08:01:29.722Z,74.75
2023-09-08T08:04:04.351Z,74.38
2023-09-08T08:06:36.057Z,74.37
2023-09-08T08:09:07.741Z,74.05
2023-09-08T08:11:39.445Z,73.99
2023-09-08T08:14:11.035Z,73.51
2023-09-08T08:16:42.643Z,73.76
2023-09-08T08:19:14.578Z,73.37
2023-09-08T08:21:46.161Z,72.50
2023-09-08T08:24:17.738Z,72.00
2023-09-08T08:26:49.307Z,71.99
2023-09-08T08:29:20.908Z,71.87
2023-09-08T08:31:52.498Z,71.48
2023-09-08T08:34:24.212Z,71.02
2023-09-08T08:36:55.813Z,70.71
2023-09-08T08:39:27.318Z,70.42
2023-09-08T08:41:59.162Z,69.51
2023-09-08T08:44:30.846Z,69.84
2023-09-08T08:47:04.535Z,69.03
2023-09-08T08:49:37.460Z,68.51
2023-09-08T08:52:10.154Z,68.39
2023-09-08T08:54:43.666Z,67.95
2023-09-08T08:57:15.945Z,68.16
2023-09-08T08:59:49.676Z,67.70
2023-09-08T09:02:23.128Z,66.64
2023-09-08T09:04:55.190Z,65.92
2023-09-08T09:07:27.303Z,66.05
2023-09-08T09:09:59.474Z,64.94
2023-09-08T09:12:31.201Z,65.83
2023-09-08T09:15:05.320Z,65.60
2023-09-08T09:17:37.302Z,63.35
2023-09-08T09:20:21.376Z,64.14
2023-09-08T09:22:53.403Z,64.46
2023-09-08T09:25:28.237Z,63.48
2023-09-08T09:28:02.332Z,62.93
2023-09-08T09:30:52.353Z,62.68
2023-09-08T09:33:24.624Z,61.79
2023-09-08T09:35:58.449Z,62.00
2023-09-08T09:38:30.717Z,60.80
2023-09-08T09:41:02.477Z,60.84
2023-09-08T09:43:34.804Z,59.92
2023-09-08T09:46:09.990Z,60.03
2023-09-08T09:48:41.653Z,60.27
2023-09-08T09:51:22.101Z,60.42
2023-09-08T09:53:56.139Z,59.45
2023-09-08T09:56:28.221Z,58.03
2023-09-08T09:59:00.740Z,57.81
2023-09-08T10:01:33.376Z,57.35
2023-09-08T10:04:06.076Z,57.59
2023-09-08T10:06:39.143Z,58.43
2023-09-08T10:09:14.751Z,57.39
2023-09-08T10:11:49.885Z,57.76
2023-09-08T10:14:22.618Z,56.12
2023-09-08T10:16:58.079Z,56.13
2023-09-08T10:19:31.476Z,53.87
2023-09-08T10:22:05.395Z,54.34
2023-09-08T10:24:39.798Z,54.39
2023-09-08T10:27:12.760Z,53.43
2023-09-08T10:29:44.583Z,54.55
2023-09-08T10:32:17.904Z,51.98
2023-09-08T10:34:50.598Z,52.63
2023-09-08T10:37:30.304Z,53.60
2023-09-08T10:40:21.076Z,52.76
2023-09-08T10:43:08.169Z,52.18
2023-09-08T10:45:42.528Z,51.16
2023-09-08T10:48:15.705Z,50.41
2023-09-08T10:50:47.307Z,50.91
2023-09-08T10:53:19.330Z,50.37
2023-09-08T10:58:39.757Z,50.15
2023-09-08T11:01:18.720Z,51.33
2023-09-08T11:03:51.672Z,49.51
2023-09-08T11:06:23.699Z,49.06
2023-09-08T11:08:57.363Z,48.72
2023-09-08T11:11:34.778Z,50.59
2023-09-08T11:14:06.429Z,48.31
2023-09-08T11:16:38.424Z,48.53
2023-09-08T11:19:11.175Z,49.86
2023-09-08T11:21:43.295Z,49.16
2023-09-08T11:24:16.083Z,48.97
2023-09-08T11:26:51.274Z,50.19
2023-09-08T11:29:23.967Z,50.13
2023-09-08T11:31:55.652Z,51.70
2023-09-08T11:34:27.186Z,50.85
2023-09-08T11:36:58.889Z,51.30
2023-09-08T11:39:30.495Z,50.35
2023-09-08T11:42:02.115Z,49.71
2023-09-08T11:44:35.636Z,50.08
2023-09-08T11:47:11.753Z,49.80
2023-09-08T11:49:44.897Z,49.90
2023-09-08T11:52:16.584Z,50.10
2023-09-08T11:55:04.064Z,48.82
2023-09-08T11:57:38.870Z,49.38
2023-09-08T12:00:15.677Z,49.75
2023-09-08T12:02:47.356Z,48.91
2023-09-08T12:05:25.627Z,48.69
2023-09-08T12:07:59.040Z,47.28
2023-09-08T12:10:30.581Z,48.30
2023-09-08T12:13:02.184Z,48.17
2023-09-08T12:15:38.566Z,48.45
2023-09-08T12:18:16.716Z,48.22
2023-09-08T12:21:08.133Z,47.92
2023-09-08T12:23:50.478Z,48.53
2023-09-08T12:26:22.708Z,48.04
2023-09-08T12:28:54.346Z,47.39
2023-09-08T12:31:26.060Z,47.27
2023-09-08T12:33:57.865Z,47.34
2023-09-08T12:36:29.433Z,47.28
2023-09-08T12:39:00.959Z,46.25
2023-09-08T12:41:32.460Z,46.22
2023-09-08T12:44:04.239Z,46.26
2023-09-08T12:46:36.702Z,46.40
2023-09-08T12:49:10.211Z,45.14
2023-09-08T12:51:42.896Z,45.53
2023-09-08T12:54:14.483Z,46.26
2023-09-08T12:56:46.055Z,45.78
2023-09-08T12:59:17.683Z,45.54
2023-09-08T13:01:49.106Z,44.01
2023-09-08T13:04:20.755Z,44.62
2023-09-08T13:06:52.133Z,44.91
2023-09-08T13:09:23.807Z,45.19
2023-09-08T13:11:55.133Z,44.38
2023-09-08T13:14:26.705Z,44.04
2023-09-08T13:16:58.098Z,44.38
2023-09-08T13:19:30.417Z,43.60
2023-09-08T13:22:02.002Z,44.33
2023-09-08T13:24:34.943Z,43.67
2023-09-08T13:27:06.630Z,43.24
2023-09-08T13:29:38.166Z,43.35
2023-09-08T13:32:09.848Z,43.43
2023-09-08T13:34:41.543Z,43.20
2023-09-08T13:37:14.137Z,43.69
2023-09-08T13:39:45.903Z,42.36
2023-09-08T13:42:17.657Z,42.21
2023-09-08T13:44:49.364Z,40.80
2023-09-08T13:47:21.263Z,39.74
2023-09-08T13:49:55.694Z,38.17
2023-09-08T13:52:31.976Z,35.87
2023-09-08T13:55:30.299Z,34.16
2023-09-08T13:57:56.626Z,30.97
2023-09-08T14:03:06.436Z,23.85
2023-09-08T14:05:43.407Z,21.09
2023-09-08T14:08:21.288Z,19.44
2023-09-08T14:13:34.759Z,17.48
2023-09-08T14:16:06.731Z,18.80
2023-09-08T14:18:38.334Z,16.23
2023-09-08T14:21:09.893Z,15.86
2023-09-08T14:23:42.539Z,15.94
2023-09-08T14:26:14.177Z,14.85
2023-09-08T14:28:45.762Z,15.47
2023-09-08T14:31:17.353Z,15.18
2023-09-08T14:33:49.094Z,14.75
2023-09-08T14:36:20.851Z,14.47
2023-09-08T14:38:52.450Z,14.14
2023-09-08T14:41:24.076Z,14.88
2023-09-08T14:43:55.734Z,14.11
2023-09-08T14:46:27.409Z,16.22
2023-09-08T14:48:59.027Z,15.35
2023-09-08T14:51:30.581Z,14.53
2023-09-08T14:54:02.246Z,13.80
2023-09-08T14:56:33.797Z,13.22
2023-09-08T14:59:05.744Z,12.56
2023-09-08T15:01:39.770Z,12.36
2023-09-08T15:04:12.294Z,12.87
2023-09-08T15:06:44.000Z,14.16
2023-09-08T15:09:15.738Z,13.62
2023-09-08T15:11:47.288Z,12.79
2023-09-08T15:14:18.860Z,12.96
2023-09-08T15:16:50.486Z,12.72
2023-09-08T15:19:22.053Z,12.68
2023-09-08T15:21:53.619Z,12.21
2023-09-08T15:24:25.482Z,12.79
2023-09-08T15:26:58.251Z,13.42
2023-09-08T15:29:29.833Z,13.10
2023-09-08T15:32:01.710Z,13.46
2023-09-08T15:34:33.530Z,12.79
2023-09-08T15:37:05.114Z,12.49
2023-09-08T15:39:36.730Z,11.92
2023-09-08T15:42:08.321Z,11.70
2023-09-08T15:44:39.860Z,10.81
2023-09-08T15:47:11.378Z,11.67
2023-09-08T15:49:43.090Z,11.44
2023-09-08T15:52:16.765Z,11.51
2023-09-08T15:54:48.763Z,11.42
2023-09-08T15:57:20.470Z,12.29
2023-09-08T15:59:52.028Z,13.65
2023-09-08T16:02:23.671Z,13.42
2023-09-08T16:04:57.867Z,12.96
2023-09-08T16:07:29.527Z,13.34
2023-09-08T16:10:01.135Z,12.61
2023-09-08T16:12:32.801Z,14.92
2023-09-08T16:15:05.049Z,20.13
2023-09-08T16:17:36.637Z,22.94
2023-09-08T16:20:08.904Z,26.01
2023-09-08T16:22:40.546Z,28.68
2023-09-08T16:25:12.119Z,30.15
2023-09-08T16:27:43.992Z,32.16
2023-09-08T16:30:15.646Z,33.03
2023-09-08T16:32:47.580Z,34.15
2023-09-08T16:35:20.227Z,36.60
2023-09-08T16:37:51.795Z,36.18
2023-09-08T16:40:23.762Z,37.72
2023-09-08T16:42:56.203Z,38.50
2023-09-08T16:45:27.777Z,39.66
2023-09-08T16:47:59.442Z,40.64
2023-09-08T16:50:31.109Z,41.94
2023-09-08T16:53:02.710Z,41.68
2023-09-08T16:55:34.317Z,42.87
2023-09-08T16:58:05.960Z,43.36
2023-09-08T17:00:37.546Z,43.73
2023-09-08T17:03:09.256Z,46.01
2023-09-08T17:05:43.658Z,44.78
2023-09-08T17:08:16.749Z,45.67
2023-09-08T17:10:49.301Z,46.19
2023-09-08T17:13:20.859Z,46.86
2023-09-08T17:15:52.328Z,47.41
2023-09-08T17:18:25.977Z,47.69
2023-09-08T17:20:57.799Z,47.43
2023-09-08T17:23:29.418Z,48.08
2023-09-08T17:26:02.182Z,48.02
2023-09-08T17:28:35.786Z,48.73
2023-09-08T17:31:07.859Z,49.50
2023-09-08T17:33:39.708Z,49.66
2023-09-08T17:36:11.640Z,50.54
2023-09-08T17:38:43.151Z,50.75
2023-09-08T17:41:14.744Z,51.62
2023-09-08T17:43:47.570Z,51.62
2023-09-08T17:46:19.333Z,51.88
2023-09-08T17:48:51.075Z,52.41
2023-09-08T17:51:23.900Z,51.68
2023-09-08T17:53:55.323Z,53.19
2023-09-08T17:56:26.915Z,53.48
2023-09-08T17:58:58.482Z,53.72
2023-09-08T18:01:30.185Z,53.45
2023-09-08T18:04:01.749Z,55.25
2023-09-08T18:06:33.518Z,55.78
2023-09-08T18:09:05.198Z,55.50
2023-09-08T18:11:36.852Z,54.88
2023-09-08T18:14:08.449Z,55.94
2023-09-08T18:16:40.139Z,55.43
2023-09-08T18:19:12.458Z,56.66
2023-09-08T18:21:44.077Z,56.99
2023-09-08T18:24:15.654Z,56.71
2023-09-08T18:26:47.261Z,57.36
2023-09-08T18:29:20.213Z,57.22
2023-09-08T18:31:52.009Z,57.50
2023-09-08T18:34:24.878Z,57.94
2023-09-08T18:36:56.461Z,57.57
2023-09-08T18:39:28.025Z,58.44
2023-09-08T18:41:59.897Z,59.24
2023-09-08T18:44:31.373Z,59.93
2023-09-08T18:47:04.198Z,59.80
2023-09-08T18:49:35.766Z,58.76
2023-09-08T18:52:07.386Z,60.09
2023-09-08T18:54:40.790Z,61.02
2023-09-08T18:57:12.688Z,59.93
2023-09-08T18:59:44.267Z,61.02
2023-09-08T19:02:15.953Z,61.86
2023-09-08T19:04:47.924Z,62.51
2023-09-08T19:07:19.582Z,62.76
2023-09-08T19:09:51.195Z,63.15
2023-09-08T19:12:22.792Z,62.92
2023-09-08T19:14:56.086Z,62.03
2023-09-08T19:17:27.708Z,61.96
2023-09-08T19:19:59.456Z,62.21
2023-09-08T19:22:30.900Z,64.42
2023-09-08T19:25:02.553Z,63.60
2023-09-08T19:27:34.329Z,64.38
2023-09-08T19:30:06.997Z,65.28
2023-09-08T19:32:38.782Z,63.84
2023-09-08T19:35:10.456Z,64.24
2023-09-08T19:37:42.115Z,65.11
2023-09-08T19:40:14.642Z,64.70
2023-09-08T19:42:46.264Z,64.18
2023-09-08T19:45:17.843Z,65.35
2023-09-08T19:47:49.762Z,64.23
2023-09-08T19:50:21.490Z,64.59
2023-09-08T19:52:53.131Z,65.55
2023-09-08T19:55:24.674Z,65.33
2023-09-08T19:57:56.378Z,66.05
2023-09-08T20:00:27.979Z,65.92
2023-09-08T20:02:59.654Z,65.75
2023-09-08T20:05:31.251Z,67.00
2023-09-08T20:08:03.140Z,66.83
2023-09-08T20:10:34.540Z,67.27
2023-09-08T20:13:06.226Z,66.15
2023-09-08T20:15:37.776Z,66.49
2023-09-08T20:18:09.585Z,66.89
2023-09-08T20:20:41.816Z,67.38
2023-09-08T20:23:14.728Z,68.03
2023-09-08T20:25:46.350Z,68.21
2023-09-08T20:28:17.950Z,67.84
2023-09-08T20:31:01.562Z,68.51
2023-09-08T20:33:41.018Z,69.38
2023-09-08T20:36:13.335Z,68.85
2023-09-08T20:38:45.213Z,68.68
2023-09-08T20:41:16.936Z,70.42
2023-09-08T20:43:48.679Z,70.46
2023-09-08T20:46:20.269Z,69.94
2023-09-08T20:48:51.974Z,70.36
2023-09-08T20:51:24.275Z,70.74
2023-09-08T20:53:56.273Z,70.38
2023-09-08T20:56:27.646Z,71.30
2023-09-08T20:58:59.201Z,71.48
2023-09-08T21:01:32.767Z,69.72
2023-09-08T21:04:04.899Z,70.88
2023-09-08T21:06:37.019Z,71.28
2023-09-08T21:09:08.825Z,70.17
2023-09-08T21:11:40.441Z,71.71
2023-09-08T21:14:13.060Z,71.46
2023-09-08T21:16:45.013Z,72.24
2023-09-08T21:19:20.029Z,72.39
2023-09-08T21:21:51.635Z,72.25
2023-09-08T21:24:23.581Z,71.78
2023-09-08T21:26:55.199Z,71.45
2023-09-08T21:29:26.798Z,72.04
2023-09-08T21:31:58.428Z,72.06
2023-09-08T21:34:30.756Z,70.83
2023-09-08T21:37:03.769Z,72.55
2023-09-08T21:39:36.584Z,72.15
2023-09-08T21:42:08.639Z,71.73
2023-09-08T21:44:40.320Z,71.71
2023-09-08T21:47:11.894Z,72.21
2023-09-08T21:49:43.638Z,72.68
2023-09-08T21:52:21.473Z,73.42
2023-09-08T21:55:04.308Z,72.19
2023-09-08T21:57:35.915Z,72.71
2023-09-08T22:00:12.065Z,72.73
2023-09-08T22:02:44.066Z,72.39
2023-09-08T22:05:16.919Z,73.51
2023-09-08T22:07:50.651Z,73.74
2023-09-08T22:10:22.994Z,73.89
2023-09-08T22:12:57.102Z,73.77
2023-09-08T22:15:28.983Z,74.62
2023-09-08T22:18:00.591Z,75.12
2023-09-08T22:20:32.178Z,75.12
2023-09-08T22:23:03.945Z,74.88
2023-09-08T22:25:35.518Z,75.41
2023-09-08T22:28:07.650Z,74.54
2023-09-08T22:30:39.303Z,75.46
2023-09-08T22:33:11.061Z,75.22
2023-09-08T22:35:42.863Z,74.74
2023-09-08T22:38:15.805Z,75.06
2023-09-08T22:40:47.399Z,74.98
2023-09-08T22:43:18.955Z,74.83
2023-09-08T22:45:50.884Z,75.01
2023-09-08T22:48:23.282Z,75.67
2023-09-08T22:50:54.876Z,75.34
2023-09-08T22:53:26.504Z,75.68
2023-09-08T22:55:58.330Z,76.61
2023-09-08T22:58:42.914Z,76.56
2023-09-08T23:01:14.637Z,76.53
2023-09-08T23:03:46.286Z,76.79
2023-09-08T23:06:19.477Z,75.75
2023-09-08T23:08:51.263Z,76.27
2023-09-08T23:11:22.943Z,77.02
2023-09-08T23:13:54.516Z,76.05
2023-09-08T23:16:26.177Z,75.93
2023-09-08T23:18:58.929Z,76.22
2023-09-08T23:21:30.484Z,75.71
2023-09-08T23:24:02.062Z,75.99
2023-09-08T23:26:33.906Z,76.22
2023-09-08T23:29:05.473Z,76.65
2023-09-08T23:31:37.125Z,76.62
2023-09-08T23:34:13.408Z,77.72
2023-09-08T23:36:45.030Z,77.15
2023-09-08T23:39:16.587Z,76.85
2023-09-08T23:41:48.174Z,77.31
2023-09-08T23:44:20.771Z,78.37
2023-09-08T23:46:53.079Z,77.93
2023-09-08T23:49:24.589Z,78.46
2023-09-08T23:51:56.214Z,77.47
2023-09-08T23:54:28.033Z,77.45
2023-09-08T23:57:00.729Z,77.10
2023-09-08T23:59:32.419Z,76.80
